Time;durP1;ratioP1;P1;durP2;ratioP2;P2;SDS_P1;SDS_P2;PMS_P1;PMS_P2;Temp;Humidity;BMP_temperature;BMP_pressure;BME280_temperature;BME280_humidity;BME280_pressure;Samples;Min_cycle;Max_cycle;Signal;HPM_P1;HPM_P2
2022/06/02 00:00:25;;;;;;;4.15;2.97;;;;;;;17.90;76.88;94774.16;5053735;28;20235;-79
2022/06/02 00:03:14;;;;;;;6.90;3.30;;;;;;;17.83;77.85;94774.06;5053524;28;20224;-78
2022/06/02 00:06:03;;;;;;;5.50;3.15;;;;;;;17.73;77.87;94773.53;5053871;28;20223;-80
2022/06/02 00:08:42;;;;;;;4.82;2.78;;;;;;;17.70;77.89;94766.03;5053915;28;20223;-79
2022/06/02 00:11:29;;;;;;;8.23;4.20;;;;;;;17.65;78.34;94774.56;5053581;28;20207;-79
2022/06/02 00:14:03;;;;;;;7.45;3.75;;;;;;;17.33;79.75;94778.75;5052903;28;20301;-79
2022/06/02 00:16:38;;;;;;;4.30;2.67;;;;;;;17.25;79.32;94782.50;5053152;28;20208;-79
2022/06/02 00:19:12;;;;;;;6.05;3.60;;;;;;;17.19;79.83;94779.31;5053563;28;20208;-79
2022/06/02 00:21:44;;;;;;;6.10;3.20;;;;;;;17.14;80.19;94778.81;5053905;28;20200;-78
2022/06/02 00:24:18;;;;;;;7.70;2.55;;;;;;;17.21;79.23;94774.25;5052926;28;20558;-79
2022/06/02 00:26:58;;;;;;;5.32;2.85;;;;;;;17.35;78.25;94773.69;5052581;28;20223;-79
2022/06/02 00:29:33;;;;;;;6.13;3.45;;;;;;;17.42;78.25;94782.00;5052949;28;20255;-79
2022/06/02 00:32:07;;;;;;;6.63;4.18;;;;;;;17.39;78.78;94780.00;5053509;28;20220;-80
2022/06/02 00:34:41;;;;;;;6.20;3.53;;;;;;;17.39;78.22;94771.78;5052971;28;20231;-79
2022/06/02 00:37:28;;;;;;;9.50;3.17;;;;;;;17.37;77.12;94768.63;5048249;28;20188;-79
2022/06/02 00:39:57;;;;;;;7.85;2.50;;;;;;;17.28;77.59;94770.84;5034458;28;20270;-79
2022/06/02 00:42:49;;;;;;;5.65;2.88;;;;;;;17.26;77.13;94773.13;5052957;28;20215;-79
2022/06/02 00:45:18;;;;;;;3.65;2.50;;;;;;;17.28;77.03;94765.34;5052492;28;20259;-79
2022/06/02 00:47:52;;;;;;;3.30;2.20;;;;;;;17.27;76.78;94770.03;5053393;28;20208;-80
2022/06/02 00:50:36;;;;;;;8.02;2.83;;;;;;;17.29;76.34;94766.94;5039491;28;20608;-79
2022/06/02 00:53:11;;;;;;;5.03;2.80;;;;;;;17.22;76.20;94761.38;5053059;28;20199;-79
2022/06/02 00:58:43;;;;;;;5.03;2.90;;;;;;;17.09;75.57;94759.94;5039729;28;20325;-79
2022/06/02 01:01:14;;;;;;;3.08;2.33;;;;;;;17.07;75.50;94765.81;5052759;28;20224;-79
2022/06/02 01:03:44;;;;;;;4.95;2.40;;;;;;;17.02;75.13;94771.56;5052978;28;20650;-79
2022/06/02 01:06:36;;;;;;;4.97;2.35;;;;;;;17.13;74.91;94769.00;5053073;28;20192;-79
2022/06/02 01:09:22;;;;;;;4.03;2.35;;;;;;;17.18;75.67;94772.25;5051271;28;20208;-79
2022/06/02 01:12:04;;;;;;;3.28;2.35;;;;;;;17.08;76.11;94772.06;5047011;28;20228;-79
2022/06/02 01:14:48;;;;;;;7.78;2.25;;;;;;;17.07;75.89;94770.50;5051466;28;20736;-79
2022/06/02 01:17:22;;;;;;;7.60;2.50;;;;;;;17.03;76.26;94765.72;5052031;28;20195;-79
2022/06/02 01:20:05;;;;;;;4.53;2.50;;;;;;;16.90;76.88;94778.00;5051753;28;20685;-79
2022/06/02 01:23:06;;;;;;;3.83;2.30;;;;;;;16.83;77.44;94772.41;5052150;28;20199;-79
2022/06/02 01:26:03;;;;;;;4.38;2.40;;;;;;;16.86;79.39;94771.69;5052561;28;20303;-79
2022/06/02 01:28:45;;;;;;;3.53;2.83;;;;;;;16.75;80.91;94776.19;5051940;28;20230;-79
2022/06/02 01:31:43;;;;;;;5.25;2.83;;;;;;;16.78;80.86;94772.72;5052700;28;20227;-79
2022/06/02 01:34:22;;;;;;;7.68;2.92;;;;;;;16.70;80.73;94773.72;5034756;28;20769;-79
2022/06/02 01:37:10;;;;;;;7.57;3.60;;;;;;;16.73;80.38;94773.00;5052531;28;20246;-79
2022/06/02 01:40:03;;;;;;;3.95;2.67;;;;;;;16.71;79.26;94780.78;5052308;28;20207;-78
2022/06/02 01:42:41;;;;;;;6.68;2.90;;;;;;;16.72;79.20;94768.69;5032062;28;20675;-79
2022/06/02 01:45:17;;;;;;;7.13;2.90;;;;;;;16.76;79.54;94766.03;5050486;28;20293;-79
2022/06/02 01:47:50;;;;;;;3.95;2.60;;;;;;;16.85;79.15;94777.50;5051639;28;20191;-80
2022/06/02 01:50:30;;;;;;;3.40;2.60;;;;;;;16.79;79.12;94771.56;5039022;28;20215;-80
2022/06/02 01:53:14;;;;;;;5.03;2.92;;;;;;;16.74;79.02;94773.81;5052282;28;20195;-80
2022/06/02 01:56:09;;;;;;;4.72;2.40;;;;;;;16.73;78.66;94762.06;5052583;28;20202;-80
2022/06/02 01:58:47;;;;;;;5.28;3.10;;;;;;;16.58;79.20;94760.19;5040147;28;20223;-80
2022/06/02 02:01:25;;;;;;;5.78;3.08;;;;;;;16.47;79.43;94764.66;5052209;28;20196;-80
2022/06/02 02:04:06;;;;;;;6.88;2.95;;;;;;;16.39;79.52;94762.97;5051611;28;20702;-79
2022/06/02 02:06:40;;;;;;;5.03;3.03;;;;;;;16.35;79.46;94769.13;5038354;28;20222;-79
2022/06/02 02:09:16;;;;;;;4.30;2.70;;;;;;;16.37;79.56;94773.47;5051407;28;20646;-79
2022/06/02 02:11:54;;;;;;;3.53;2.30;;;;;;;16.25;79.87;94764.25;5051510;28;20230;-80
2022/06/02 02:14:39;;;;;;;4.63;3.22;;;;;;;16.28;80.05;94763.50;5050878;28;20752;-80
2022/06/02 02:17:18;;;;;;;5.40;2.20;;;;;;;16.21;80.37;94757.91;5051647;28;20605;-80
2022/06/02 02:19:56;;;;;;;4.63;2.63;;;;;;;16.17;80.10;94756.25;5050699;28;20219;-80
2022/06/02 02:22:34;;;;;;;5.38;2.28;;;;;;;16.21;80.46;94763.38;5051824;28;20187;-80
2022/06/02 02:25:12;;;;;;;8.35;2.70;;;;;;;16.23;80.53;94746.63;5051665;28;20200;-80
2022/06/02 02:28:05;;;;;;;4.25;2.63;;;;;;;16.27;80.18;94753.72;5038923;28;20202;-79
2022/06/02 02:30:42;;;;;;;3.42;2.33;;;;;;;16.08;80.66;94756.47;5050110;28;20219;-79
2022/06/02 02:33:22;;;;;;;11.73;3.58;;;;;;;15.95;81.15;94757.75;5051414;28;20230;-80
2022/06/02 02:35:59;;;;;;;7.47;2.78;;;;;;;15.86;81.05;94762.63;5039200;28;20195;-80
2022/06/02 02:38:36;;;;;;;3.45;2.40;;;;;;;15.97;80.78;94764.47;5048476;28;20670;-79
2022/06/02 02:41:05;;;;;;;4.15;2.67;;;;;;;16.04;80.90;94768.47;5042022;28;20219;-80
2022/06/02 02:43:38;;;;;;;4.95;2.65;;;;;;;16.12;81.13;94765.56;5050968;28;20232;-80
2022/06/02 02:46:11;;;;;;;4.78;2.65;;;;;;;16.09;80.41;94760.78;5051384;28;20196;-79
2022/06/02 02:48:51;;;;;;;6.85;2.80;;;;;;;16.16;80.77;94763.66;5051128;28;20235;-79
2022/06/02 02:51:30;;;;;;;7.97;2.75;;;;;;;16.19;80.91;94765.69;5050530;28;20261;-80
2022/06/02 02:54:02;;;;;;;5.18;2.95;;;;;;;16.23;81.18;94765.75;5050431;28;20224;-79
2022/06/02 02:56:34;;;;;;;6.90;3.65;;;;;;;16.35;80.76;94774.59;5050525;28;20226;-80
2022/06/02 02:59:13;;;;;;;8.85;4.22;;;;;;;16.49;79.98;94773.31;5051252;28;20215;-80
2022/06/02 03:01:47;;;;;;;4.57;3.10;;;;;;;16.63;79.88;94777.13;5050501;28;20628;-80
2022/06/02 03:04:31;;;;;;;9.18;2.92;;;;;;;16.57;79.17;94780.47;5051204;28;20240;-80
2022/06/02 03:06:59;;;;;;;7.13;2.88;;;;;;;16.66;80.26;94789.31;5050661;28;20241;-81
2022/06/02 03:09:35;;;;;;;7.03;4.57;;;;;;;17.02;79.69;94786.06;5050661;28;20223;-79
2022/06/02 03:12:09;;;;;;;4.45;3.38;;;;;;;17.71;78.15;94781.34;5050344;28;20223;-79
2022/06/02 03:14:58;;;;;;;8.80;4.78;;;;;;;18.61;75.30;94775.06;5050770;28;20766;-79
2022/06/02 03:17:34;;;;;;;6.78;3.42;;;;;;;19.29;72.99;94771.03;5050939;28;20226;-79
2022/06/02 03:20:08;;;;;;;7.15;3.60;;;;;;;19.88;71.63;94769.97;5050030;28;20269;-79
2022/06/02 03:22:53;;;;;;;4.80;3.92;;;;;;;20.44;69.23;94775.00;5050427;28;20269;-79
2022/06/02 03:25:31;;;;;;;6.10;4.30;;;;;;;21.13;66.57;94776.78;5050793;28;20226;-79
2022/06/02 03:28:13;;;;;;;6.03;3.88;;;;;;;21.81;63.32;94778.41;5039284;28;20281;-78
2022/06/02 03:30:45;;;;;;;6.70;4.57;;;;;;;22.44;60.51;94760.13;5050542;28;20255;-77
2022/06/02 03:33:33;;;;;;;5.72;3.40;;;;;;;23.26;57.90;94760.53;5050357;28;20707;-81
2022/06/02 03:36:12;;;;;;;5.60;2.95;;;;;;;23.90;56.30;94760.06;5038653;28;20204;-81
2022/06/02 03:38:59;;;;;;;6.10;3.10;;;;;;;24.03;54.83;94752.81;5033690;28;20199;-80
2022/06/02 03:41:57;;;;;;;4.57;3.33;;;;;;;24.56;53.68;94757.00;5046514;28;20618;-78
2022/06/02 03:44:33;;;;;;;6.13;3.65;;;;;;;24.56;53.48;94761.75;5066206;28;20197;-80
2022/06/02 03:47:17;;;;;;;5.43;3.85;;;;;;;24.32;54.40;94763.59;5040512;28;20582;-80
2022/06/02 03:50:17;;;;;;;6.65;4.07;;;;;;;24.38;54.54;94773.03;5054218;28;20195;-79
2022/06/02 03:53:00;;;;;;;7.40;4.10;;;;;;;25.10;52.33;94754.34;5054079;28;20227;-88
2022/06/02 03:55:42;;;;;;;8.52;3.47;;;;;;;24.98;53.04;94755.69;5054268;28;20247;-88
2022/06/02 03:58:46;;;;;;;6.35;4.20;;;;;;;25.82;50.84;94752.06;5053803;28;20231;-77
2022/06/02 04:01:20;;;;;;;5.85;4.53;;;;;;;26.92;48.06;94743.63;5053948;28;20259;-77
2022/06/02 04:04:01;;;;;;;9.30;4.05;;;;;;;27.51;46.79;94735.91;5053457;28;20243;-77
2022/06/02 04:06:40;;;;;;;6.95;4.05;;;;;;;28.37;44.63;94742.16;5053048;28;20188;-78
2022/06/02 04:09:21;;;;;;;6.28;4.07;;;;;;;28.41;44.61;94740.06;5053091;28;20227;-76
2022/06/02 04:15:12;;;;;;;6.00;3.88;;;;;;;27.57;45.82;94739.00;5042630;28;20230;-77
2022/06/02 04:17:48;;;;;;;6.75;4.18;;;;;;;27.49;45.86;94727.22;5053409;28;20199;-82
2022/06/02 04:20:36;;;;;;;6.88;4.25;;;;;;;27.89;45.90;94730.63;5053238;28;20314;-82
2022/06/02 04:23:48;;;;;;;6.75;4.28;;;;;;;27.52;46.74;94733.91;5040374;28;20568;-81
2022/06/02 04:26:40;;;;;;;6.80;4.72;;;;;;;28.07;45.29;94734.97;5020415;28;20196;-79
2022/06/02 04:29:26;;;;;;;6.82;5.28;;;;;;;27.68;46.05;94735.97;5052208;28;20305;-81
2022/06/02 04:32:06;;;;;;;8.65;5.20;;;;;;;28.53;44.90;94744.91;5053210;28;20242;-83
2022/06/02 04:34:40;;;;;;;7.38;5.40;;;;;;;28.04;45.38;94755.31;5053676;28;20207;-80
2022/06/02 04:37:16;;;;;;;11.82;5.15;;;;;;;29.09;43.40;94750.09;5052523;28;20543;-81
2022/06/02 04:39:53;;;;;;;11.82;5.05;;;;;;;29.40;42.79;94748.34;5053419;28;20240;-83
2022/06/02 04:42:30;;;;;;;9.30;5.32;;;;;;;30.40;40.93;94743.84;5041445;28;20223;-83
2022/06/02 04:45:09;;;;;;;5.38;4.85;;;;;;;30.48;40.61;94749.19;5053094;28;20199;-82
2022/06/02 04:47:50;;;;;;;7.65;5.25;;;;;;;31.25;38.76;94747.59;5053409;28;20670;-82
2022/06/02 04:50:24;;;;;;;8.60;5.20;;;;;;;31.20;39.21;94745.38;5039499;28;20223;-83
2022/06/02 04:53:00;;;;;;;8.80;5.30;;;;;;;32.21;37.23;94752.94;5052007;28;20261;-84
2022/06/02 04:55:36;;;;;;;10.18;5.18;;;;;;;33.13;36.14;94757.31;5052484;28;20196;-81
2022/06/02 04:58:14;;;;;;;9.82;5.47;;;;;;;33.23;35.61;94746.03;5052746;28;20752;-84
2022/06/02 05:00:51;;;;;;;8.32;5.20;;;;;;;33.81;35.01;94749.31;5052951;28;20238;-84
2022/06/02 05:03:26;;;;;;;10.80;5.15;;;;;;;33.98;34.56;94754.56;5053178;28;20318;-84
2022/06/02 05:06:04;;;;;;;8.00;4.88;;;;;;;33.11;35.46;94762.59;5052268;28;20191;-81
2022/06/02 05:08:46;;;;;;;9.23;5.43;;;;;;;32.57;36.83;94754.22;5051855;28;20239;-82
2022/06/02 05:11:25;;;;;;;8.13;5.28;;;;;;;33.43;35.50;94758.34;5052763;28;20233;-83
2022/06/02 05:13:59;;;;;;;9.57;6.05;;;;;;;32.67;36.70;94755.75;5048609;28;20246;-82
2022/06/02 05:16:39;;;;;;;12.57;7.00;;;;;;;33.36;35.65;94760.69;5043299;28;20188;-83
2022/06/02 05:19:41;;;;;;;9.55;5.25;;;;;;;32.18;36.63;94756.66;5041866;28;20291;-81
2022/06/02 05:22:53;;;;;;;11.75;6.72;;;;;;;33.26;35.63;94759.16;5039758;28;20211;-83
2022/06/02 05:25:49;;;;;;;6.65;5.43;;;;;;;32.23;37.14;94753.25;5039940;28;20180;-81
2022/06/02 05:28:54;;;;;;;10.55;5.65;;;;;;;32.30;36.49;94754.97;5035983;28;20220;-80
2022/06/02 05:31:52;;;;;;;6.80;5.63;;;;;;;32.15;37.09;94751.97;5021875;28;20196;-81
2022/06/02 05:35:04;;;;;;;11.88;5.85;;;;;;;32.59;36.00;94760.91;5040589;28;20206;-78
2022/06/02 05:37:51;;;;;;;7.43;5.32;;;;;;;31.68;37.29;94764.31;5040208;28;20234;-84
2022/06/02 05:40:26;;;;;;;9.82;6.30;;;;;;;33.85;34.47;94760.41;5052162;28;20231;-78
2022/06/02 05:43:09;;;;;;;8.88;5.13;;;;;;;31.61;37.91;94764.53;5049663;28;20191;-77
2022/06/02 05:45:51;;;;;;;8.02;5.78;;;;;;;30.15;40.52;94785.84;5039703;28;20224;-75
2022/06/02 05:48:36;;;;;;;7.30;5.85;;;;;;;31.29;39.15;94781.84;5048847;28;21060;-84
2022/06/02 05:51:27;;;;;;;9.00;4.93;;;;;;;32.19;36.90;94774.28;5041090;28;20554;-81
2022/06/02 05:54:06;;;;;;;9.23;5.53;;;;;;;32.90;35.66;94768.41;5046305;28;20228;-86
2022/06/02 05:56:43;;;;;;;7.82;5.50;;;;;;;33.43;35.24;94774.44;5050838;28;20219;-85
2022/06/02 05:59:39;;;;;;;10.32;6.00;;;;;;;34.99;32.92;94766.66;5042325;28;20222;-87
2022/06/02 06:02:37;;;;;;;13.90;9.70;;;;;;;33.64;34.21;94773.41;5043086;28;20708;-88
2022/06/02 06:05:15;;;;;;;9.57;5.75;;;;;;;34.38;32.92;94756.97;5027471;28;20188;-88
2022/06/02 06:08:18;;;;;;;7.22;4.90;;;;;;;35.08;31.38;94755.31;5040389;28;20330;-78
2022/06/02 06:10:55;;;;;;;6.35;4.65;;;;;;;34.54;32.67;94760.16;5040851;28;20187;-81
2022/06/02 06:13:56;;;;;;;11.88;6.10;;;;;;;33.13;34.70;94762.13;5043014;28;20227;-82
2022/06/02 06:16:31;;;;;;;8.93;5.68;;;;;;;32.16;36.42;94764.72;5026872;28;20207;-83
2022/06/02 06:19:11;;;;;;;12.93;6.70;;;;;;;32.42;36.61;94763.25;5040400;28;20211;-83
2022/06/02 06:22:03;;;;;;;11.13;6.55;;;;;;;32.57;36.18;94768.22;5040264;28;20693;-86
2022/06/02 06:24:58;;;;;;;9.25;5.90;;;;;;;32.67;36.16;94764.19;5045017;28;20192;-82
2022/06/02 06:27:33;;;;;;;10.57;5.45;;;;;;;33.10;35.43;94763.84;5050652;28;20242;-85
2022/06/02 06:30:10;;;;;;;10.65;5.40;;;;;;;33.80;34.25;94758.22;5051617;28;20258;-84
2022/06/02 06:32:42;;;;;;;7.60;5.38;;;;;;;33.68;34.29;94759.19;5038978;28;20191;-83
2022/06/02 06:35:22;;;;;;;12.85;5.65;;;;;;;33.18;34.69;94764.31;5051375;28;20210;-81
2022/06/02 06:38:12;;;;;;;7.43;5.78;;;;;;;33.19;34.77;94772.28;5045317;28;20198;-84
2022/06/02 06:41:05;;;;;;;11.85;5.50;;;;;;;32.12;36.24;94758.50;5040392;28;20219;-83
2022/06/02 06:43:45;;;;;;;6.95;4.53;;;;;;;33.58;35.42;94752.06;5041655;28;20219;-83
2022/06/02 06:46:20;;;;;;;10.88;4.82;;;;;;;33.48;34.25;94759.75;5039865;28;20254;-80
2022/06/02 06:48:53;;;;;;;7.03;4.70;;;;;;;33.24;34.92;94761.63;5041674;28;20238;-87
2022/06/02 06:51:34;;;;;;;9.60;4.30;;;;;;;32.76;35.09;94761.41;5046700;28;20663;-87
2022/06/02 06:54:13;;;;;;;8.75;4.72;;;;;;;33.38;33.78;94752.59;5050551;28;20219;-81
2022/06/02 06:56:49;;;;;;;7.53;4.28;;;;;;;31.47;36.81;94753.13;5051119;28;20215;-84
2022/06/02 06:59:35;;;;;;;6.40;5.30;;;;;;;32.58;35.22;94755.78;5050347;28;20191;-83
2022/06/02 07:02:13;;;;;;;6.40;5.13;;;;;;;33.32;33.82;94757.28;5050653;28;20219;-86
2022/06/02 07:04:48;;;;;;;7.70;4.57;;;;;;;34.07;32.63;94751.69;5051432;28;20984;-83
2022/06/02 07:07:21;;;;;;;7.13;4.30;;;;;;;32.72;34.96;94755.16;5050695;28;20223;-86
2022/06/02 07:09:55;;;;;;;6.60;4.50;;;;;;;32.87;34.90;94758.91;5037161;28;20196;-85
2022/06/02 07:15:23;;;;;;;7.00;4.63;;;;;;;32.65;35.67;94761.09;5051084;28;20191;-80
2022/06/02 07:17:57;;;;;;;10.90;4.38;;;;;;;32.46;35.65;94757.47;5054603;28;20187;-85
2022/06/02 07:20:33;;;;;;;15.82;5.47;;;;;;;31.93;35.99;94759.72;5055181;28;20242;-82
2022/06/02 07:23:08;;;;;;;7.60;4.82;;;;;;;32.65;35.89;94761.88;5055503;28;20199;-84
2022/06/02 07:25:44;;;;;;;10.30;4.82;;;;;;;32.22;37.26;94757.31;5054955;28;20325;-86
2022/06/02 07:28:19;;;;;;;8.82;3.85;;;;;;;33.67;34.87;94766.84;5055092;28;20255;-87
2022/06/02 07:31:05;;;;;;;12.40;4.60;;;;;;;34.52;32.02;94751.41;5055054;28;20195;-85
2022/06/02 07:33:44;;;;;;;8.55;4.50;;;;;;;34.56;31.59;94749.19;5054578;28;20201;-85
2022/06/02 07:36:58;;;;;;;11.48;4.57;;;;;;;33.34;34.56;94761.19;5055014;28;20195;-81
2022/06/02 07:39:56;;;;;;;11.30;4.68;;;;;;;32.18;37.04;94762.25;5004979;28;20207;-86
2022/06/02 07:43:04;;;;;;;7.50;4.97;;;;;;;31.43;38.07;94761.69;5042571;28;20244;-82
2022/06/02 07:45:37;;;;;;;4.78;4.30;;;;;;;31.76;39.35;94762.00;5043920;28;20199;-84
2022/06/02 07:48:34;;;;;;;6.57;4.40;;;;;;;31.69;37.04;94754.66;5054558;28;20234;-79
2022/06/02 07:51:11;;;;;;;9.07;4.85;;;;;;;31.63;37.18;94756.47;5054714;28;20598;-86
2022/06/02 07:54:01;;;;;;;7.40;4.90;;;;;;;31.44;37.70;94754.81;5041574;28;20227;-84
2022/06/02 07:56:39;;;;;;;8.27;4.70;;;;;;;31.26;37.95;94760.34;5054601;28;20231;-86
2022/06/02 07:59:16;;;;;;;6.97;4.50;;;;;;;31.40;36.99;94754.97;5054226;28;20242;-84
2022/06/02 08:02:16;;;;;;;6.72;4.43;;;;;;;29.95;39.42;94760.13;5033962;28;20227;-84
2022/06/02 08:04:54;;;;;;;10.25;4.75;;;;;;;30.42;41.57;94757.38;5052038;28;20220;-86
2022/06/02 08:07:28;;;;;;;8.02;4.50;;;;;;;30.21;40.50;94763.69;5054211;28;20212;-84
2022/06/02 08:10:16;;;;;;;6.47;4.40;;;;;;;30.02;39.43;94759.94;5042052;28;20196;-86
2022/06/02 08:12:50;;;;;;;7.68;4.60;;;;;;;29.33;40.67;94762.50;5053232;28;20204;-80
2022/06/02 08:15:38;;;;;;;5.90;4.25;;;;;;;29.59;40.53;94766.88;5054034;28;20228;-86
2022/06/02 08:18:38;;;;;;;5.35;3.47;;;;;;;29.96;40.49;94758.91;5041734;28;20224;-87
2022/06/02 08:21:17;;;;;;;6.18;3.70;;;;;;;30.09;39.48;94756.91;5053859;28;20212;-86
2022/06/02 08:24:09;;;;;;;8.60;4.35;;;;;;;30.18;40.01;94759.81;5053865;28;20234;-85
2022/06/02 08:26:46;;;;;;;7.70;3.85;;;;;;;30.68;38.87;94755.28;5051140;28;20228;-85
2022/06/02 08:29:23;;;;;;;7.03;4.25;;;;;;;30.67;39.98;94748.13;5052175;28;20235;-84
2022/06/02 08:32:03;;;;;;;8.45;4.18;;;;;;;30.52;39.40;94747.03;5053244;28;20282;-84
2022/06/02 08:34:41;;;;;;;9.80;3.80;;;;;;;31.06;39.51;94750.25;5053121;28;20643;-84
2022/06/02 08:37:16;;;;;;;7.00;4.95;;;;;;;29.80;39.20;94745.06;5048069;28;20235;-75
2022/06/02 08:39:58;;;;;;;5.57;3.92;;;;;;;29.80;41.27;94750.66;5045862;28;20203;-83
2022/06/02 08:43:09;;;;;;;6.38;3.63;;;;;;;30.26;39.44;94754.72;5041716;28;20236;-86
2022/06/02 08:45:55;;;;;;;7.22;3.40;;;;;;;30.05;38.31;94753.47;5053121;28;20220;-80
2022/06/02 08:48:47;;;;;;;5.10;3.53;;;;;;;29.49;39.47;94754.06;5053105;28;20223;-82
2022/06/02 08:52:01;;;;;;;6.30;3.58;;;;;;;30.07;37.43;94755.81;5052943;28;20227;-83
2022/06/02 08:55:20;;;;;;;4.80;3.00;;;;;;;30.01;36.34;94750.00;5039977;28;20219;-77
2022/06/02 08:58:29;;;;;;;6.75;3.15;;;;;;;30.00;38.17;94745.63;5052684;28;20751;-84
2022/06/02 09:01:05;;;;;;;4.38;2.95;;;;;;;29.63;37.00;94756.41;5052953;28;20487;-87
2022/06/02 09:04:25;;;;;;;7.38;3.88;;;;;;;30.63;36.63;94758.63;5052864;28;20223;-81
2022/06/02 09:07:16;;;;;;;4.53;3.03;;;;;;;30.45;34.41;94752.88;5041647;28;20211;-81
2022/06/02 09:10:25;;;;;;;10.30;3.25;;;;;;;29.75;36.68;94751.25;5029728;28;20207;-83
2022/06/02 09:13:22;;;;;;;5.32;2.92;;;;;;;30.95;35.41;94757.47;5052843;28;20243;-81
2022/06/02 09:16:05;;;;;;;6.85;3.17;;;;;;;31.30;34.69;94744.16;5052476;28;20210;-85
2022/06/02 09:18:55;;;;;;;7.72;2.92;;;;;;;31.33;34.13;94743.25;5053199;28;20223;-86
2022/06/02 09:21:24;;;;;;;6.70;2.70;;;;;;;31.26;34.40;94738.72;5041468;28;20274;-86
2022/06/02 09:24:03;;;;;;;5.38;2.72;;;;;;;30.30;33.29;94739.41;5046504;28;20307;-84
2022/06/02 09:26:46;;;;;;;4.38;2.33;;;;;;;29.45;35.35;94745.00;5041686;28;20294;-82
2022/06/02 09:29:24;;;;;;;4.28;2.58;;;;;;;29.19;35.79;94743.41;5040815;28;20207;-77
2022/06/02 09:32:04;;;;;;;7.43;2.40;;;;;;;29.55;31.49;94749.47;5050980;28;20235;-81
2022/06/02 09:34:59;;;;;;;5.00;2.58;;;;;;;29.28;33.63;94740.72;5051022;28;20239;-88
2022/06/02 09:38:17;;;;;;;4.50;2.83;;;;;;;29.74;34.23;94738.50;5045917;28;20672;-83
2022/06/02 09:40:50;;;;;;;8.23;2.70;;;;;;;30.52;33.84;94744.22;4993372;28;20212;-81
2022/06/02 09:43:45;;;;;;;5.07;2.13;;;;;;;30.77;33.99;94732.94;5041498;28;20547;-83
2022/06/02 09:46:43;;;;;;;7.40;2.28;;;;;;;31.17;32.90;94724.66;5047644;28;20204;-84
2022/06/02 09:49:28;;;;;;;5.88;3.35;;;;;;;31.05;30.44;94723.50;5040833;28;20219;-84
2022/06/02 09:52:02;;;;;;;5.28;2.92;;;;;;;30.99;32.89;94730.94;5043592;28;20572;-77
2022/06/02 09:54:53;;;;;;;5.65;2.42;;;;;;;30.93;33.62;94726.38;5046990;28;20266;-79
2022/06/02 09:58:10;;;;;;;4.63;2.50;;;;;;;31.36;34.25;94715.13;5044430;28;20220;-84
2022/06/02 10:00:59;;;;;;;4.68;2.88;;;;;;;31.47;33.15;94720.28;4987228;28;20221;-81
2022/06/02 10:04:08;;;;;;;6.43;3.15;;;;;;;31.92;32.87;94716.09;5050740;28;20242;-83
2022/06/02 10:07:14;;;;;;;5.88;2.60;;;;;;;31.59;30.33;94722.19;4976250;28;20329;-79
2022/06/02 10:10:16;;;;;;;3.88;2.30;;;;;;;30.92;31.34;94708.81;5050122;28;20191;-82
2022/06/02 10:13:28;;;;;;;8.27;2.47;;;;;;;30.71;29.99;94721.59;5045241;28;20290;-84
2022/06/02 10:16:14;;;;;;;3.75;2.20;;;;;;;30.55;29.88;94715.41;5047741;28;20274;-78
2022/06/02 10:18:59;;;;;;;6.70;2.00;;;;;;;29.96;29.75;94722.59;5042370;28;20543;-83
2022/06/02 10:21:46;;;;;;;3.92;1.95;;;;;;;29.80;28.36;94720.72;5039031;28;20211;-78
2022/06/02 10:24:49;;;;;;;3.83;1.90;;;;;;;30.70;27.84;94711.63;5050497;28;20310;-78
2022/06/02 10:28:13;;;;;;;4.10;2.22;;;;;;;30.34;29.16;94720.47;5050970;28;20191;-78
2022/06/02 10:31:17;;;;;;;3.60;2.08;;;;;;;30.72;28.52;94711.19;5050734;28;20273;-79
2022/06/02 10:34:30;;;;;;;3.90;1.70;;;;;;;30.84;28.48;94696.31;5045888;28;20237;-76
2022/06/02 10:37:32;;;;;;;6.10;1.90;;;;;;;31.20;28.58;94694.97;5042840;28;20189;-77
2022/06/02 10:40:14;;;;;;;8.98;2.38;;;;;;;31.61;30.10;94696.53;5045696;28;20219;-83
2022/06/02 10:43:09;;;;;;;5.38;2.08;;;;;;;32.13;28.72;94695.56;5047465;28;20220;-80
2022/06/02 10:46:15;;;;;;;5.72;2.10;;;;;;;31.50;26.68;94691.38;5040893;28;20193;-81
2022/06/02 10:49:14;;;;;;;6.10;2.30;;;;;;;30.75;26.56;94694.22;5030500;28;20623;-82
2022/06/02 10:52:28;;;;;;;2.67;1.67;;;;;;;30.27;26.61;94692.78;5045073;28;20187;-84
2022/06/02 10:55:33;;;;;;;6.28;2.20;;;;;;;30.53;27.29;94681.47;5040970;28;20693;-77
2022/06/02 10:58:30;;;;;;;12.55;2.75;;;;;;;31.46;25.84;94682.31;5019088;28;20231;-74
2022/06/02 11:01:26;;;;;;;10.82;2.80;;;;;;;31.76;27.10;94670.28;5033465;28;20629;-80
2022/06/02 11:04:33;;;;;;;7.93;5.05;;;;;;;31.54;26.15;94666.81;5028015;28;20260;-80
2022/06/02 11:07:52;;;;;;;4.03;1.85;;;;;;;31.80;25.20;94670.16;5041389;28;20962;-78
2022/06/02 11:10:24;;;;;;;4.80;1.83;;;;;;;32.11;25.16;94672.84;5039454;28;20287;-80
2022/06/02 11:13:33;;;;;;;3.88;1.70;;;;;;;32.30;25.75;94668.81;5040131;28;20220;-81
2022/06/02 11:16:43;;;;;;;4.95;2.20;;;;;;;31.48;27.49;94665.84;5037685;28;20238;-79
2022/06/02 11:19:51;;;;;;;5.32;2.38;;;;;;;30.73;29.22;94665.97;5038724;28;20306;-86
2022/06/02 11:22:40;;;;;;;3.78;2.22;;;;;;;30.54;28.15;94677.47;5039755;28;20299;-79
2022/06/02 11:25:46;;;;;;;5.97;2.50;;;;;;;30.39;29.36;94671.59;5040803;28;20193;-81
2022/06/02 11:28:55;;;;;;;4.93;2.17;;;;;;;31.15;28.52;94664.81;5036323;28;20838;-79
2022/06/02 11:31:44;;;;;;;7.88;2.30;;;;;;;31.88;28.75;94660.19;5040897;28;20220;-79
2022/06/02 11:34:29;;;;;;;4.28;2.15;;;;;;;31.88;27.70;94665.00;5036997;28;20253;-77
2022/06/02 11:37:29;;;;;;;5.25;2.25;;;;;;;31.38;29.75;94655.84;5041353;28;20216;-85
2022/06/02 11:40:34;;;;;;;4.80;2.40;;;;;;;31.25;29.58;94663.59;5040140;28;20192;-83
2022/06/02 11:43:13;;;;;;;4.05;2.20;;;;;;;31.15;30.82;94662.78;5042079;28;20311;-72
2022/06/02 11:46:15;;;;;;;7.45;2.38;;;;;;;30.41;31.36;94657.94;5039195;28;20247;-79
2022/06/02 11:49:14;;;;;;;4.22;2.50;;;;;;;30.22;32.52;94668.19;5044765;28;20616;-75
2022/06/02 11:52:16;;;;;;;4.10;2.45;;;;;;;29.96;33.33;94663.91;5042899;28;20258;-81
2022/06/02 11:55:00;;;;;;;4.47;2.50;;;;;;;29.87;32.75;94658.25;5037880;28;20623;-77
2022/06/02 11:57:50;;;;;;;6.70;2.53;;;;;;;30.07;33.84;94655.97;5048639;28;20672;-79
2022/06/02 12:00:46;;;;;;;4.53;2.13;;;;;;;30.20;31.27;94653.13;5038800;28;20314;-84
2022/06/02 12:03:45;;;;;;;4.10;2.15;;;;;;;30.54;31.53;94643.91;5050871;28;20266;-79
2022/06/02 12:06:39;;;;;;;3.55;2.05;;;;;;;31.35;30.83;94640.75;5052178;28;20224;-78
2022/06/02 12:09:54;;;;;;;3.55;2.20;;;;;;;31.15;31.28;94637.59;5052638;28;20210;-85
2022/06/02 12:12:41;;;;;;;3.28;2.22;;;;;;;31.03;30.64;94636.41;5010072;28;20611;-84
2022/06/02 12:15:29;;;;;;;3.75;2.40;;;;;;;31.79;32.01;94632.16;5010423;28;20229;-76
2022/06/02 12:18:28;;;;;;;5.55;2.47;;;;;;;31.47;32.86;94636.28;5031942;28;20247;-75
2022/06/02 12:21:34;;;;;;;3.50;2.47;;;;;;;30.21;34.20;94643.50;5051715;28;20647;-77
2022/06/02 12:24:18;;;;;;;5.93;2.58;;;;;;;30.66;33.27;94641.03;5052420;28;20234;-72
2022/06/02 12:27:02;;;;;;;3.90;2.45;;;;;;;30.16;33.61;94644.09;5052577;28;20196;-76
2022/06/02 12:29:47;;;;;;;4.60;2.40;;;;;;;29.98;34.19;94642.69;5032747;28;20200;-80
2022/06/02 12:32:34;;;;;;;5.85;2.50;;;;;;;30.18;33.54;94645.22;5050358;28;20191;-79
2022/06/02 12:35:32;;;;;;;7.15;2.42;;;;;;;29.75;34.41;94645.09;5052444;28;20289;-79
2022/06/02 12:38:26;;;;;;;5.50;2.53;;;;;;;29.44;34.64;94637.34;5028891;28;20293;-80
2022/06/02 12:41:31;;;;;;;7.00;2.88;;;;;;;29.35;35.24;94651.19;5038246;28;20234;-78
2022/06/02 12:44:26;;;;;;;7.38;3.25;;;;;;;29.58;35.69;94652.84;5038440;28;20230;-82
2022/06/02 12:47:27;;;;;;;5.35;4.05;;;;;;;29.69;36.31;94642.88;5053559;28;20235;-84
2022/06/02 12:50:28;;;;;;;3.45;2.60;;;;;;;29.99;35.52;94649.06;5051521;28;20240;-77
2022/06/02 12:53:17;;;;;;;3.60;2.40;;;;;;;30.09;35.55;94647.91;5051043;28;20680;-79
2022/06/02 12:56:10;;;;;;;5.68;2.75;;;;;;;30.03;34.77;94649.75;5051625;28;20192;-78
2022/06/02 12:59:03;;;;;;;5.40;2.40;;;;;;;29.58;34.99;94659.22;5018491;28;20228;-76
2022/06/02 13:02:03;;;;;;;4.93;2.45;;;;;;;29.48;35.29;94651.97;5052497;28;20211;-79
2022/06/02 13:05:17;;;;;;;4.38;2.72;;;;;;;29.36;36.86;94647.16;5052556;28;20315;-78
2022/06/02 13:08:30;;;;;;;6.45;3.05;;;;;;;28.98;38.84;94647.16;5052469;28;20298;-78
2022/06/02 13:11:26;;;;;;;3.67;2.72;;;;;;;28.87;37.78;94650.28;5052444;28;20574;-76